Time;durP1;ratioP1;P1;durP2;ratioP2;P2;SDS_P1;SDS_P2;PMS_P1;PMS_P2;Temp;Humidity;BMP_temperature;BMP_pressure;BME280_temperature;BME280_humidity;BME280_pressure;Samples;Min_cycle;Max_cycle;Signal;HPM_P1;HPM_P2
2021/08/14 00:01:14;;;;;;;5.75;3.70;;;16.80;99.90;;;;;;5054291;28;20249;-84
2021/08/14 00:03:41;;;;;;;5.50;2.90;;;17.00;99.90;;;;;;5057255;28;20195;-84
2021/08/14 00:06:08;;;;;;;5.63;3.55;;;16.90;99.90;;;;;;5058026;28;20199;-84
2021/08/14 00:08:34;;;;;;;9.07;3.10;;;16.90;99.90;;;;;;5052610;28;20564;-83
2021/08/14 00:11:01;;;;;;;9.30;3.80;;;16.90;99.90;;;;;;5057999;28;20290;-83
2021/08/14 00:13:28;;;;;;;6.15;3.53;;;16.90;99.90;;;;;;5053333;28;20313;-84
2021/08/14 00:15:56;;;;;;;7.82;3.10;;;16.60;99.90;;;;;;5046562;28;20242;-84
2021/08/14 00:18:23;;;;;;;6.90;3.22;;;16.70;99.90;;;;;;5043139;28;20301;-84
2021/08/14 00:20:50;;;;;;;6.95;3.33;;;16.70;99.90;;;;;;5051947;28;20293;-84
2021/08/14 00:23:17;;;;;;;7.13;3.00;;;16.70;99.90;;;;;;5053444;28;20716;-83
2021/08/14 00:25:44;;;;;;;7.30;3.17;;;16.60;99.90;;;;;;5069329;28;20307;-84
2021/08/14 00:28:11;;;;;;;9.43;3.10;;;16.30;99.90;;;;;;5049374;28;20234;-83
2021/08/14 00:30:38;;;;;;;5.13;2.90;;;16.10;99.90;;;;;;5040430;28;20291;-83
2021/08/14 00:33:06;;;;;;;7.32;2.85;;;16.30;99.90;;;;;;5038449;28;20251;-84
2021/08/14 00:35:33;;;;;;;7.10;3.75;;;16.40;99.90;;;;;;5057209;28;20671;-84
2021/08/14 00:38:00;;;;;;;5.75;3.10;;;16.40;99.90;;;;;;5042361;28;20669;-84
2021/08/14 00:40:27;;;;;;;9.00;3.30;;;16.60;99.90;;;;;;5062890;28;20716;-84
2021/08/14 00:42:54;;;;;;;5.68;3.50;;;16.60;99.90;;;;;;5046242;28;20211;-84
2021/08/14 00:45:20;;;;;;;6.63;3.03;;;16.60;99.90;;;;;;5051194;28;20206;-83
2021/08/14 00:47:47;;;;;;;9.70;3.72;;;16.50;99.90;;;;;;5038374;28;20657;-84
2021/08/14 00:50:16;;;;;;;5.68;3.05;;;16.50;99.90;;;;;;5054628;28;20243;-84
2021/08/14 00:52:43;;;;;;;4.30;2.67;;;16.50;99.90;;;;;;5042120;28;20221;-83
2021/08/14 00:55:12;;;;;;;7.45;3.30;;;16.40;99.90;;;;;;5057441;28;20293;-84
2021/08/14 00:57:41;;;;;;;6.65;3.10;;;16.30;99.90;;;;;;5041803;28;20224;-84
2021/08/14 01:00:09;;;;;;;4.60;2.70;;;16.10;99.90;;;;;;5052907;28;20243;-84
2021/08/14 01:02:36;;;;;;;7.20;3.20;;;16.20;99.90;;;;;;5057479;28;20618;-84
2021/08/14 01:05:03;;;;;;;7.32;3.00;;;16.40;99.90;;;;;;5055701;28;20191;-84
2021/08/14 01:07:32;;;;;;;8.80;3.15;;;16.30;99.90;;;;;;5039091;28;20217;-84
2021/08/14 01:09:58;;;;;;;6.07;3.08;;;16.40;99.90;;;;;;5057045;28;20258;-84
2021/08/14 01:12:25;;;;;;;7.57;3.30;;;16.50;99.90;;;;;;5037673;28;20303;-84
2021/08/14 01:14:52;;;;;;;6.40;3.03;;;16.30;99.90;;;;;;5045790;28;20204;-84
2021/08/14 01:17:19;;;;;;;7.28;3.15;;;16.10;99.90;;;;;;5041922;28;20262;-84
2021/08/14 01:19:47;;;;;;;6.78;2.92;;;16.30;99.90;;;;;;5055816;28;20254;-83
2021/08/14 01:22:15;;;;;;;4.82;2.90;;;16.30;99.90;;;;;;5057331;28;20286;-84
2021/08/14 01:24:45;;;;;;;9.20;3.78;;;16.20;99.90;;;;;;5059838;28;20241;-83
2021/08/14 01:27:14;;;;;;;5.43;2.85;;;16.20;99.90;;;;;;5074547;28;20215;-84
2021/08/14 01:29:41;;;;;;;5.40;3.25;;;16.20;99.90;;;;;;5062526;28;20297;-84
2021/08/14 01:32:09;;;;;;;8.05;3.53;;;16.20;99.90;;;;;;5074210;28;20215;-83
2021/08/14 01:34:37;;;;;;;11.13;2.92;;;16.10;99.90;;;;;;5062029;28;20226;-83
2021/08/14 01:37:06;;;;;;;7.70;3.20;;;16.30;99.90;;;;;;5070884;28;20389;-83
2021/08/14 01:39:33;;;;;;;5.65;2.70;;;16.10;99.90;;;;;;5058468;28;20249;-84
2021/08/14 01:42:02;;;;;;;6.88;3.00;;;15.90;99.90;;;;;;5057690;28;20286;-84
2021/08/14 01:44:31;;;;;;;5.32;2.92;;;15.70;99.90;;;;;;5055513;28;20230;-83
2021/08/14 01:46:59;;;;;;;8.30;3.25;;;16.00;99.90;;;;;;5057669;28;20233;-84
2021/08/14 01:49:26;;;;;;;9.25;3.40;;;16.00;99.90;;;;;;5057869;28;20257;-84
2021/08/14 01:51:54;;;;;;;8.18;3.42;;;16.00;99.90;;;;;;5057876;28;20264;-83
2021/08/14 01:54:21;;;;;;;5.20;3.10;;;16.00;99.90;;;;;;5057053;28;20314;-84
2021/08/14 01:56:49;;;;;;;6.75;3.30;;;16.00;99.90;;;;;;5058081;28;20286;-83
2021/08/14 01:59:16;;;;;;;6.75;3.38;;;15.70;99.90;;;;;;5058110;28;20364;-83
2021/08/14 02:01:45;;;;;;;6.20;2.92;;;15.70;99.90;;;;;;5064634;28;20221;-84
2021/08/14 02:04:12;;;;;;;10.48;3.33;;;15.70;99.90;;;;;;5060901;28;20229;-83
2021/08/14 02:06:39;;;;;;;7.35;3.25;;;15.60;99.90;;;;;;5063372;28;20218;-84
2021/08/14 02:09:05;;;;;;;6.90;3.15;;;15.50;99.90;;;;;;5061519;28;20627;-84
2021/08/14 02:11:35;;;;;;;8.95;3.70;;;15.40;99.90;;;;;;5057399;28;20187;-84
2021/08/14 02:14:02;;;;;;;7.53;3.50;;;15.30;99.90;;;;;;5057876;28;20280;-84
2021/08/14 02:16:29;;;;;;;8.53;3.43;;;15.30;99.90;;;;;;5059766;28;20658;-83
2021/08/14 02:18:59;;;;;;;5.93;3.42;;;15.40;99.90;;;;;;5063753;28;20226;-83
2021/08/14 02:21:25;;;;;;;6.90;3.35;;;15.50;99.90;;;;;;5075980;28;20195;-83
2021/08/14 02:23:53;;;;;;;10.83;3.80;;;15.40;99.90;;;;;;5064936;28;20203;-83
2021/08/14 02:26:20;;;;;;;6.53;3.47;;;15.40;99.90;;;;;;5041995;28;20286;-83
2021/08/14 02:28:47;;;;;;;8.90;3.60;;;15.50;99.90;;;;;;5050873;28;20229;-83
2021/08/14 02:31:14;;;;;;;7.67;3.73;;;15.50;99.90;;;;;;5054761;28;20203;-84
2021/08/14 02:33:41;;;;;;;6.30;3.53;;;15.50;99.90;;;;;;5044808;28;20307;-84
2021/08/14 02:36:10;;;;;;;6.93;3.33;;;15.30;99.90;;;;;;5043991;28;20562;-83
2021/08/14 02:38:38;;;;;;;8.83;3.40;;;15.50;99.90;;;;;;5051688;28;20302;-83
2021/08/14 02:41:06;;;;;;;8.40;3.20;;;15.50;99.90;;;;;;5047150;28;20207;-84
2021/08/14 02:43:34;;;;;;;8.90;3.50;;;15.60;99.90;;;;;;5051344;28;20584;-84
2021/08/14 02:46:01;;;;;;;6.67;3.30;;;15.50;99.90;;;;;;5056113;28;20341;-83
2021/08/14 02:48:28;;;;;;;7.90;3.70;;;15.40;99.90;;;;;;5052334;28;20437;-84
2021/08/14 02:50:55;;;;;;;6.60;3.50;;;15.30;99.90;;;;;;5047833;28;20203;-83
2021/08/14 02:53:24;;;;;;;7.60;3.87;;;15.10;99.90;;;;;;5045881;28;20227;-83
2021/08/14 02:55:51;;;;;;;6.07;3.33;;;15.30;99.90;;;;;;5051970;28;20226;-84
2021/08/14 02:58:18;;;;;;;7.70;3.77;;;15.40;99.90;;;;;;5050789;28;20450;-84
2021/08/14 03:00:45;;;;;;;7.30;3.40;;;15.30;99.90;;;;;;5058166;28;20214;-83
2021/08/14 03:03:13;;;;;;;8.53;4.03;;;15.30;99.90;;;;;;5047659;28;20299;-83
2021/08/14 03:05:40;;;;;;;5.57;3.20;;;15.30;99.90;;;;;;5058661;28;20217;-83
2021/08/14 03:08:09;;;;;;;7.73;3.80;;;15.30;99.90;;;;;;5060590;28;20198;-84
2021/08/14 03:10:38;;;;;;;9.97;3.50;;;15.30;99.90;;;;;;5077167;28;20197;-83
2021/08/14 03:13:05;;;;;;;7.77;3.63;;;15.20;99.90;;;;;;5067263;28;20295;-83
2021/08/14 03:15:31;;;;;;;9.70;4.13;;;15.20;99.90;;;;;;5060753;28;20290;-83
2021/08/14 03:17:58;;;;;;;8.40;3.57;;;15.20;99.90;;;;;;5056497;28;20783;-83
2021/08/14 03:20:25;;;;;;;6.33;3.53;;;15.10;99.90;;;;;;5080431;28;20210;-84
2021/08/14 03:22:52;;;;;;;9.60;3.60;;;15.00;99.90;;;;;;5057188;28;20249;-83
2021/08/14 03:25:19;;;;;;;4.87;3.40;;;15.00;99.90;;;;;;5059173;28;20329;-83
2021/08/14 03:27:47;;;;;;;11.63;4.00;;;15.20;99.90;;;;;;5057528;28;20206;-83
2021/08/14 03:30:16;;;;;;;8.10;3.70;;;15.10;99.90;;;;;;5059898;28;20250;-84
2021/08/14 03:32:44;;;;;;;7.03;3.70;;;15.20;99.90;;;;;;5053950;28;20248;-83
2021/08/14 03:35:12;;;;;;;9.03;4.10;;;15.20;99.90;;;;;;5057910;28;20199;-84
2021/08/14 03:37:38;;;;;;;8.10;3.90;;;15.20;99.90;;;;;;5054454;28;20200;-83
2021/08/14 03:40:07;;;;;;;8.90;4.20;;;15.00;99.90;;;;;;5055773;28;20262;-84
2021/08/14 03:42:34;;;;;;;8.27;4.07;;;14.90;99.90;;;;;;5055704;28;20620;-84
2021/08/14 03:45:03;;;;;;;7.87;3.40;;;14.80;99.90;;;;;;5054948;28;20230;-83
2021/08/14 03:47:30;;;;;;;8.80;3.83;;;14.80;99.90;;;;;;5055870;28;20207;-83
2021/08/14 03:49:57;;;;;;;10.70;4.47;;;14.90;99.90;;;;;;5052047;28;20280;-83
2021/08/14 03:52:24;;;;;;;11.50;3.93;;;14.90;99.90;;;;;;5055427;28;20202;-83
2021/08/14 03:54:51;;;;;;;7.73;4.00;;;15.00;99.90;;;;;;5058823;28;20598;-84
2021/08/14 03:57:18;;;;;;;10.37;4.03;;;15.20;99.90;;;;;;5058340;28;20199;-84
2021/08/14 03:59:44;;;;;;;7.37;3.77;;;15.10;99.90;;;;;;5059768;28;20659;-84
2021/08/14 04:02:13;;;;;;;8.63;3.80;;;15.10;99.90;;;;;;5045724;28;20196;-83
2021/08/14 04:04:40;;;;;;;10.90;3.63;;;15.00;99.90;;;;;;5049605;28;20199;-84
2021/08/14 04:07:06;;;;;;;7.47;3.90;;;15.10;99.90;;;;;;5044792;28;20293;-84
2021/08/14 04:09:33;;;;;;;8.48;4.15;;;15.10;99.90;;;;;;5050148;28;20654;-84
2021/08/14 04:12:00;;;;;;;13.70;4.63;;;15.10;99.90;;;;;;5053737;28;20275;-83
2021/08/14 04:14:27;;;;;;;8.33;3.60;;;15.10;99.90;;;;;;5046497;28;20287;-83
2021/08/14 04:16:54;;;;;;;6.67;3.83;;;15.20;99.90;;;;;;5049000;28;20226;-83
2021/08/14 04:19:22;;;;;;;7.37;3.43;;;15.30;99.90;;;;;;5053923;28;20262;-84
2021/08/14 04:21:49;;;;;;;7.63;3.53;;;15.20;99.90;;;;;;5053997;28;20624;-83
2021/08/14 04:24:16;;;;;;;6.83;3.77;;;15.30;99.90;;;;;;5056001;28;20226;-84
2021/08/14 04:26:43;;;;;;;8.67;4.10;;;15.40;99.90;;;;;;5049392;28;20223;-84
2021/08/14 04:29:10;;;;;;;9.60;3.83;;;15.60;99.90;;;;;;5060025;28;20290;-83
2021/08/14 04:31:37;;;;;;;6.33;3.47;;;15.40;99.90;;;;;;5055794;28;20199;-83
2021/08/14 04:34:04;;;;;;;7.97;4.00;;;15.20;99.90;;;;;;5057196;28;20302;-83
2021/08/14 04:36:32;;;;;;;7.73;3.70;;;15.30;99.90;;;;;;5057901;28;20237;-84
2021/08/14 04:38:59;;;;;;;6.53;3.35;;;15.30;99.90;;;;;;5057086;28;20250;-83
2021/08/14 04:41:26;;;;;;;6.65;3.53;;;15.20;99.90;;;;;;5058572;28;20214;-83
2021/08/14 04:43:52;;;;;;;6.97;3.97;;;15.30;99.90;;;;;;5057973;28;20197;-83
2021/08/14 04:46:19;;;;;;;7.53;3.80;;;15.20;99.90;;;;;;5078079;28;20194;-83
2021/08/14 04:48:46;;;;;;;8.37;3.67;;;15.10;99.90;;;;;;5061905;28;20253;-83
2021/08/14 04:51:13;;;;;;;10.47;4.23;;;15.10;99.90;;;;;;5077117;28;20624;-83
2021/08/14 04:53:41;;;;;;;7.22;3.78;;;15.10;99.90;;;;;;5057829;28;20309;-84
2021/08/14 04:56:08;;;;;;;9.67;4.30;;;15.20;99.90;;;;;;5058113;28;20270;-84
2021/08/14 04:58:35;;;;;;;8.90;3.70;;;15.10;99.90;;;;;;5062599;28;20313;-84
2021/08/14 05:01:02;;;;;;;10.47;3.63;;;15.20;99.90;;;;;;5071073;28;20226;-83
2021/08/14 05:03:29;;;;;;;7.43;3.87;;;15.20;99.90;;;;;;5058844;28;20226;-84
2021/08/14 05:05:56;;;;;;;6.80;3.57;;;15.30;99.90;;;;;;5050920;28;20279;-83
2021/08/14 05:08:23;;;;;;;6.77;3.30;;;15.40;99.90;;;;;;5045590;28;20221;-83
2021/08/14 05:10:51;;;;;;;4.78;3.20;;;15.40;99.90;;;;;;5049433;28;20239;-82
2021/08/14 05:13:18;;;;;;;9.10;3.40;;;15.50;99.90;;;;;;5046059;28;20202;-82
2021/08/14 05:15:45;;;;;;;7.00;3.72;;;15.50;99.90;;;;;;5067354;28;20207;-85
2021/08/14 05:18:12;;;;;;;7.43;3.97;;;15.60;99.90;;;;;;5044757;28;20256;-81
2021/08/14 05:20:39;;;;;;;12.70;7.03;;;15.70;99.90;;;;;;5075511;28;20639;-81
2021/08/14 05:23:06;;;;;;;11.57;4.80;;;15.80;99.90;;;;;;5059451;28;20653;-80
2021/08/14 05:25:33;;;;;;;7.33;3.70;;;15.90;99.90;;;;;;5071024;28;20212;-82
2021/08/14 05:28:01;;;;;;;7.72;3.55;;;15.80;99.90;;;;;;5055400;28;20286;-82
2021/08/14 05:30:28;;;;;;;7.57;4.17;;;16.00;99.90;;;;;;5054270;28;20699;-83
2021/08/14 05:32:55;;;;;;;8.50;4.07;;;16.00;99.90;;;;;;5052520;28;20639;-82
2021/08/14 05:35:22;;;;;;;7.55;3.63;;;16.00;99.90;;;;;;5054872;28;20309;-82
2021/08/14 05:37:49;;;;;;;9.05;3.50;;;16.20;99.90;;;;;;5055949;28;20586;-82
2021/08/14 05:40:16;;;;;;;10.77;4.00;;;16.20;99.90;;;;;;5048993;28;20230;-81
2021/08/14 05:42:43;;;;;;;7.90;3.43;;;16.30;99.90;;;;;;5045723;28;20196;-83
2021/08/14 05:45:12;;;;;;;8.70;3.35;;;16.50;99.90;;;;;;5057340;28;20631;-81
2021/08/14 05:47:39;;;;;;;9.15;3.60;;;16.60;99.90;;;;;;5052915;28;20294;-83
2021/08/14 05:50:07;;;;;;;9.63;4.30;;;16.70;99.90;;;;;;5057130;28;20301;-82
2021/08/14 05:52:33;;;;;;;6.82;3.42;;;16.60;99.90;;;;;;5052029;28;20202;-82
2021/08/14 05:55:00;;;;;;;8.85;4.05;;;16.70;99.90;;;;;;5056373;28;20246;-81
2021/08/14 05:57:27;;;;;;;6.25;3.03;;;16.80;99.90;;;;;;5055627;28;20531;-82
2021/08/14 05:59:54;;;;;;;7.32;3.35;;;16.90;99.90;;;;;;5055331;28;20211;-81
2021/08/14 06:02:22;;;;;;;9.30;3.42;;;17.10;99.90;;;;;;5056340;28;20234;-81
2021/08/14 06:04:49;;;;;;;8.02;3.55;;;17.10;99.90;;;;;;5060146;28;20302;-81
2021/08/14 06:07:16;;;;;;;7.28;3.38;;;17.10;99.90;;;;;;5060850;28;20199;-81
2021/08/14 06:09:43;;;;;;;10.77;4.38;;;17.10;99.90;;;;;;5042393;28;20306;-81
2021/08/14 06:12:10;;;;;;;9.07;3.38;;;17.00;99.90;;;;;;5056411;28;20203;-81
2021/08/14 06:14:37;;;;;;;8.05;3.95;;;17.00;99.90;;;;;;5054565;28;20222;-81
2021/08/14 06:17:05;;;;;;;9.32;4.45;;;17.20;99.90;;;;;;5062240;28;20265;-81
2021/08/14 06:19:33;;;;;;;8.40;3.70;;;17.30;99.90;;;;;;5056289;28;20254;-82
2021/08/14 06:22:00;;;;;;;8.13;3.42;;;17.40;99.90;;;;;;5062394;28;20199;-82
2021/08/14 06:24:27;;;;;;;7.50;3.50;;;17.50;99.90;;;;;;5045350;28;20290;-81
2021/08/14 06:26:54;;;;;;;8.15;3.72;;;17.60;99.90;;;;;;5060941;28;20554;-80
2021/08/14 06:29:21;;;;;;;13.25;4.10;;;17.70;99.90;;;;;;5058622;28;20258;-80
2021/08/14 06:31:48;;;;;;;11.88;5.22;;;17.80;99.90;;;;;;5061413;28;20241;-81
2021/08/14 06:34:14;;;;;;;8.05;3.78;;;18.00;99.90;;;;;;5061312;28;20223;-82
2021/08/14 06:36:43;;;;;;;10.32;3.53;;;18.00;99.90;;;;;;5059288;28;20207;-81
2021/08/14 06:39:09;;;;;;;7.63;3.50;;;18.10;99.90;;;;;;5057592;28;20254;-82
2021/08/14 06:41:36;;;;;;;6.75;3.42;;;18.10;99.90;;;;;;5056891;28;20624;-81
2021/08/14 06:44:04;;;;;;;8.52;3.45;;;18.10;99.90;;;;;;5058844;28;20229;-82
2021/08/14 06:46:31;;;;;;;7.82;3.50;;;18.30;99.90;;;;;;5058546;28;20221;-82
2021/08/14 06:48:59;;;;;;;9.57;4.05;;;18.30;99.90;;;;;;5058519;28;20247;-81
2021/08/14 06:51:26;;;;;;;5.57;3.42;;;18.60;99.90;;;;;;5059215;28;20248;-80
2021/08/14 06:53:54;;;;;;;10.43;3.25;;;18.50;99.90;;;;;;5040987;28;20582;-82
2021/08/14 06:56:21;;;;;;;11.82;3.25;;;18.90;99.90;;;;;;5044258;28;20231;-81
2021/08/14 06:58:47;;;;;;;10.13;3.33;;;18.90;99.90;;;;;;5055774;28;20302;-81
2021/08/14 07:01:14;;;;;;;6.65;2.88;;;18.80;99.90;;;;;;5055047;28;20617;-81
2021/08/14 07:03:41;;;;;;;8.25;3.20;;;18.90;99.90;;;;;;5048586;28;20207;-80
2021/08/14 07:06:08;;;;;;;9.00;3.53;;;19.10;99.90;;;;;;5048438;28;20562;-82
2021/08/14 07:08:35;;;;;;;12.20;3.33;;;19.20;99.90;;;;;;5049888;28;20237;-82
2021/08/14 07:11:03;;;;;;;8.88;3.53;;;19.40;99.90;;;;;;5049389;28;20648;-81
2021/08/14 07:13:31;;;;;;;8.82;2.95;;;19.50;99.90;;;;;;5045847;28;20282;-82
2021/08/14 07:15:58;;;;;;;10.25;3.53;;;19.40;99.90;;;;;;5040256;28;20697;-81
2021/08/14 07:18:25;;;;;;;11.43;3.45;;;19.50;99.90;;;;;;5042808;28;20268;-83
2021/08/14 07:20:52;;;;;;;6.95;3.00;;;19.60;99.90;;;;;;5050404;28;20241;-81
2021/08/14 07:23:19;;;;;;;9.82;3.05;;;19.60;99.90;;;;;;5043327;28;20225;-81
2021/08/14 07:25:46;;;;;;;5.88;3.13;;;19.60;99.90;;;;;;5039554;28;20223;-80
2021/08/14 07:28:14;;;;;;;9.40;3.80;;;19.80;99.90;;;;;;5047544;28;20310;-84
2021/08/14 07:30:41;;;;;;;9.75;3.17;;;19.70;99.90;;;;;;5041509;28;20195;-81
2021/08/14 07:33:08;;;;;;;10.85;3.63;;;19.60;99.90;;;;;;5045958;28;20286;-80
2021/08/14 07:35:35;;;;;;;9.82;3.80;;;19.70;99.90;;;;;;5047302;28;20601;-82
2021/08/14 07:38:02;;;;;;;6.45;2.80;;;19.80;99.90;;;;;;5041512;28;20633;-79
2021/08/14 07:40:29;;;;;;;11.30;3.38;;;20.00;99.90;;;;;;5042856;28;20295;-82
2021/08/14 07:42:57;;;;;;;9.55;3.65;;;20.10;99.90;;;;;;5039645;28;20491;-85
2021/08/14 07:45:26;;;;;;;7.30;3.13;;;20.20;99.90;;;;;;5044121;28;20235;-80
2021/08/14 07:47:53;;;;;;;13.00;3.45;;;20.30;99.90;;;;;;5040352;28;20235;-82
2021/08/14 07:50:22;;;;;;;9.57;3.78;;;20.40;99.90;;;;;;5040361;28;20211;-81
2021/08/14 07:52:49;;;;;;;10.50;3.38;;;20.40;99.90;;;;;;5041288;28;20594;-82
2021/08/14 07:55:16;;;;;;;9.93;3.50;;;20.30;99.90;;;;;;5051229;28;20222;-82
2021/08/14 07:57:44;;;;;;;10.77;3.53;;;20.60;99.90;;;;;;5049017;28;20675;-81
2021/08/14 08:00:13;;;;;;;7.72;3.00;;;20.90;99.90;;;;;;5045417;28;20302;-81
2021/08/14 08:02:43;;;;;;;7.93;3.60;;;20.90;99.90;;;;;;5049438;28;20668;-83
2021/08/14 08:05:12;;;;;;;6.88;3.22;;;21.00;99.90;;;;;;5042772;28;20649;-83
2021/08/14 08:07:40;;;;;;;9.60;3.95;;;21.20;99.90;;;;;;5041145;28;20287;-80
2021/08/14 08:10:08;;;;;;;11.25;3.78;;;21.10;99.90;;;;;;5042862;28;20219;-80
2021/08/14 08:12:35;;;;;;;11.07;4.68;;;21.20;99.90;;;;;;5041173;28;20235;-81
2021/08/14 08:15:02;;;;;;;6.88;3.90;;;21.30;99.90;;;;;;5046221;28;20225;-83
2021/08/14 08:17:29;;;;;;;9.20;4.28;;;21.40;99.90;;;;;;5041753;28;20238;-81
2021/08/14 08:19:57;;;;;;;10.85;4.13;;;21.30;99.90;;;;;;5041525;28;20219;-81
2021/08/14 08:22:24;;;;;;;11.75;4.88;;;21.40;99.90;;;;;;5042704;28;20282;-82
2021/08/14 08:24:51;;;;;;;10.52;4.68;;;21.20;99.90;;;;;;5043647;28;20283;-83
2021/08/14 08:27:18;;;;;;;8.48;4.57;;;21.20;99.90;;;;;;5049339;28;20226;-83
2021/08/14 08:29:45;;;;;;;12.95;6.40;;;21.20;99.90;;;;;;5049734;28;20225;-82
2021/08/14 08:32:13;;;;;;;10.27;4.85;;;21.20;99.90;;;;;;5047166;28;20210;-78
2021/08/14 08:34:40;;;;;;;11.02;4.55;;;21.30;99.90;;;;;;5040602;28;20251;-81
2021/08/14 08:37:08;;;;;;;10.38;4.22;;;21.30;99.90;;;;;;5041352;28;20234;-82
2021/08/14 08:39:37;;;;;;;11.82;4.90;;;21.20;99.90;;;;;;5043806;28;20554;-82
2021/08/14 08:42:04;;;;;;;11.68;5.25;;;21.40;99.90;;;;;;5038378;28;20204;-82
2021/08/14 08:44:31;;;;;;;10.45;5.38;;;21.10;99.90;;;;;;5051697;28;20720;-82
2021/08/14 08:46:58;;;;;;;11.75;5.30;;;21.10;99.90;;;;;;5045755;28;20230;-82
2021/08/14 08:49:26;;;;;;;10.23;4.97;;;21.10;99.90;;;;;;5039686;28;20277;-83
2021/08/14 08:51:54;;;;;;;10.27;4.93;;;21.10;99.90;;;;;;5041928;28;20211;-83
2021/08/14 08:54:22;;;;;;;11.57;5.32;;;21.00;99.90;;;;;;5040800;28;20213;-81
2021/08/14 08:56:49;;;;;;;11.18;5.10;;;20.90;99.90;;;;;;5039593;28;20239;-83
2021/08/14 08:59:16;;;;;;;10.18;4.45;;;21.20;99.90;;;;;;5052263;28;20305;-83
2021/08/14 09:01:43;;;;;;;12.10;5.55;;;21.50;99.90;;;;;;5043474;28;20205;-83
2021/08/14 09:04:21;;;;;;;15.50;6.10;;;22.20;99.90;;;;;;5035389;28;20234;-82
2021/08/14 09:06:48;;;;;;;14.68;5.10;;;22.50;99.90;;;;;;5044128;28;20199;-82
2021/08/14 09:09:15;;;;;;;14.80;6.63;;;23.20;99.90;;;;;;5043373;28;20661;-83
2021/08/14 09:11:51;;;;;;;15.52;7.07;;;23.30;99.90;;;;;;5046048;28;20246;-82
2021/08/14 09:14:18;;;;;;;13.02;6.70;;;22.90;99.90;;;;;;5041457;28;20278;-83
2021/08/14 09:16:46;;;;;;;11.50;6.30;;;23.00;99.90;;;;;;5039970;28;20219;-83
2021/08/14 09:19:23;;;;;;;11.75;6.35;;;23.30;99.90;;;;;;5044230;28;20301;-82
2021/08/14 09:21:50;;;;;;;9.65;5.75;;;23.60;99.90;;;;;;5048227;28;20775;-82
2021/08/14 09:24:31;;;;;;;10.13;6.28;;;23.90;99.90;;;;;;5039900;28;20680;-82
2021/08/14 09:27:05;;;;;;;11.50;6.63;;;24.00;99.90;;;;;;5048698;28;20222;-82
2021/08/14 09:29:33;;;;;;;12.10;5.57;;;24.20;99.90;;;;;;5049986;28;20310;-82
2021/08/14 09:32:01;;;;;;;13.95;5.70;;;24.70;99.90;;;;;;5063194;28;20245;-82
2021/08/14 09:34:28;;;;;;;12.07;5.53;;;24.80;99.90;;;;;;5056179;28;20222;-82
2021/08/14 09:37:00;;;;;;;12.57;5.18;;;25.20;99.90;;;;;;5037730;28;20312;-82
2021/08/14 09:39:28;;;;;;;8.75;5.47;;;25.30;99.90;;;;;;5051635;28;20218;-82
2021/08/14 09:42:04;;;;;;;9.10;5.15;;;25.50;99.90;;;;;;5069827;28;20238;-82
2021/08/14 09:44:31;;;;;;;11.02;5.45;;;25.60;99.90;;;;;;5060732;28;20269;-82
2021/08/14 09:46:58;;;;;;;10.20;4.78;;;25.10;99.90;;;;;;5053648;28;20205;-82
2021/08/14 09:49:25;;;;;;;9.68;5.03;;;25.00;99.90;;;;;;5037368;28;20315;-82
2021/08/14 09:51:52;;;;;;;9.88;5.13;;;25.40;99.90;;;;;;5036667;28;20654;-81
2021/08/14 09:54:19;;;;;;;11.80;5.07;;;25.60;99.90;;;;;;5052221;28;20467;-81
2021/08/14 09:56:45;;;;;;;8.05;4.95;;;25.70;99.90;;;;;;5040580;28;20281;-79
2021/08/14 09:59:16;;;;;;;11.15;4.88;;;25.50;99.90;;;;;;5051810;28;20286;-83
2021/08/14 10:01:44;;;;;;;11.90;4.85;;;26.20;99.90;;;;;;5053606;28;20576;-84
2021/08/14 10:04:12;;;;;;;8.95;5.68;;;26.20;99.90;;;;;;5050266;28;20210;-80
2021/08/14 10:06:40;;;;;;;13.15;5.40;;;25.90;99.90;;;;;;5051216;28;20215;-81
2021/08/14 10:09:07;;;;;;;10.50;5.50;;;26.40;99.90;;;;;;5046194;28;20714;-83
2021/08/14 10:11:36;;;;;;;8.68;4.97;;;26.50;99.90;;;;;;5066819;28;20257;-84
2021/08/14 10:14:03;;;;;;;10.25;5.68;;;26.40;99.90;;;;;;5060509;28;20587;-84
2021/08/14 10:16:32;;;;;;;9.07;5.05;;;26.10;99.90;;;;;;5065577;28;20223;-84
2021/08/14 10:19:00;;;;;;;8.35;5.07;;;26.40;99.90;;;;;;5055293;28;20258;-84
2021/08/14 10:21:28;;;;;;;9.20;4.90;;;25.80;99.90;;;;;;5052608;28;20241;-84
2021/08/14 10:23:57;;;;;;;16.20;5.20;;;25.70;99.90;;;;;;5071551;28;20290;-84
2021/08/14 10:26:29;;;;;;;9.23;4.97;;;26.10;99.90;;;;;;5061554;28;20202;-84
2021/08/14 10:28:57;;;;;;;9.88;4.57;;;26.70;99.90;;;;;;5060438;28;20226;-84
2021/08/14 10:31:47;;;;;;;10.93;5.03;;;26.20;99.90;;;;;;5065995;28;20242;-84
2021/08/14 10:34:34;;;;;;;8.80;4.47;;;26.20;99.90;;;;;;5053141;28;20424;-84
2021/08/14 10:37:02;;;;;;;8.88;4.32;;;26.30;99.90;;;;;;5054181;28;20234;-84
2021/08/14 10:39:31;;;;;;;8.60;4.65;;;26.30;99.90;;;;;;5061594;28;20234;-84
2021/08/14 10:42:00;;;;;;;10.63;4.93;;;26.70;99.90;;;;;;5059501;28;20211;-84
2021/08/14 10:44:45;;;;;;;8.75;4.40;;;27.00;99.90;;;;;;5060367;28;20612;-84
2021/08/14 10:47:43;;;;;;;8.45;4.18;;;27.20;99.90;;;;;;5052994;28;20618;-84
2021/08/14 10:50:31;;;;;;;9.45;4.65;;;27.20;99.90;;;;;;5063218;28;20223;-85
2021/08/14 10:53:21;;;;;;;11.00;5.38;;;27.30;99.90;;;;;;5065135;28;20226;-85
2021/08/14 10:55:50;;;;;;;11.88;4.55;;;26.90;99.90;;;;;;5073575;28;20248;-84
2021/08/14 10:58:19;;;;;;;9.85;4.53;;;27.30;99.90;;;;;;5070762;28;20219;-84
2021/08/14 11:00:46;;;;;;;8.10;3.92;;;27.30;99.90;;;;;;5069264;28;20234;-84
2021/08/14 11:03:16;;;;;;;8.73;4.25;;;27.30;99.90;;;;;;5072499;28;20546;-83
2021/08/14 11:05:46;;;;;;;6.95;4.40;;;27.30;99.90;;;;;;5066029;28;20230;-85
2021/08/14 11:08:30;;;;;;;7.70;4.60;;;26.90;99.90;;;;;;5062230;28;20225;-84
2021/08/14 11:10:59;;;;;;;10.18;4.43;;;26.50;99.90;;;;;;5060362;28;20346;-85
2021/08/14 11:13:44;;;;;;;7.13;4.50;;;27.20;99.90;;;;;;5062433;28;20286;-85
2021/08/14 11:16:32;;;;;;;8.27;4.15;;;27.60;99.90;;;;;;5054365;28;20275;-85
2021/08/14 11:19:00;;;;;;;8.35;4.97;;;27.90;99.90;;;;;;5045719;28;20316;-85
2021/08/14 11:21:52;;;;;;;10.05;4.68;;;27.60;99.90;;;;;;5045808;28;20231;-85
2021/08/14 11:24:38;;;;;;;8.52;4.25;;;27.70;99.90;;;;;;5017790;28;20215;-85
2021/08/14 11:27:20;;;;;;;6.57;4.28;;;27.70;99.90;;;;;;5065434;28;20205;-84
2021/08/14 11:29:47;;;;;;;11.43;4.75;;;28.20;99.90;;;;;;5044616;28;20222;-85
2021/08/14 11:32:14;;;;;;;7.05;4.32;;;27.60;99.90;;;;;;5050415;28;20420;-85
2021/08/14 11:34:44;;;;;;;6.43;4.18;;;28.20;99.90;;;;;;5043963;28;20215;-83
2021/08/14 11:37:11;;;;;;;10.20;4.22;;;28.50;99.90;;;;;;5049333;28;20291;-83
2021/08/14 11:39:44;;;;;;;10.27;4.32;;;28.10;99.90;;;;;;5055813;28;20253;-84
2021/08/14 11:42:12;;;;;;;9.57;4.90;;;27.80;99.90;;;;;;5054080;28;20589;-85
2021/08/14 11:44:40;;;;;;;8.38;4.32;;;28.30;99.90;;;;;;5059003;28;20204;-85
2021/08/14 11:47:13;;;;;;;9.38;4.68;;;28.60;99.90;;;;;;5046832;28;20211;-84
2021/08/14 11:49:55;;;;;;;7.97;4.18;;;28.20;99.90;;;;;;5047708;28;20241;-84
2021/08/14 11:52:23;;;;;;;6.95;4.13;;;28.40;99.90;;;;;;5046700;28;20504;-85
2021/08/14 11:55:04;;;;;;;7.47;3.75;;;28.60;99.90;;;;;;5053085;28;20199;-85
2021/08/14 11:57:33;;;;;;;8.02;3.97;;;28.90;99.90;;;;;;5029792;28;20666;-85
2021/08/14 12:00:05;;;;;;;7.60;4.40;;;28.70;99.90;;;;;;5048700;28;20218;-87
2021/08/14 12:02:33;;;;;;;8.77;3.97;;;28.30;99.90;;;;;;5049622;28;20208;-85
2021/08/14 12:05:00;;;;;;;7.75;4.93;;;28.50;99.90;;;;;;5044217;28;20199;-85
2021/08/14 12:07:27;;;;;;;10.10;4.45;;;28.80;99.90;;;;;;5046738;28;20282;-84
2021/08/14 12:10:01;;;;;;;6.50;4.30;;;28.80;99.90;;;;;;5051330;28;20242;-85
2021/08/14 12:12:30;;;;;;;8.02;4.05;;;28.50;99.90;;;;;;5043506;28;20209;-84
2021/08/14 12:14:57;;;;;;;7.03;4.38;;;28.80;99.90;;;;;;5040217;28;20349;-86
2021/08/14 12:17:24;;;;;;;7.35;3.67;;;28.90;99.90;;;;;;5032727;28;20223;-85
2021/08/14 12:19:53;;;;;;;8.55;3.97;;;29.40;99.90;;;;;;5044129;28;20242;-84
2021/08/14 12:22:21;;;;;;;7.65;4.20;;;29.00;99.90;;;;;;5049358;28;20647;-86
2021/08/14 12:24:50;;;;;;;9.40;4.15;;;29.00;99.60;;;;;;5058961;28;20218;-84
2021/08/14 12:27:29;;;;;;;7.70;4.00;;;28.50;99.30;;;;;;5049060;28;20262;-86
2021/08/14 12:30:16;;;;;;;8.98;3.72;;;29.10;99.00;;;;;;5057398;28;20227;-87
2021/08/14 12:32:43;;;;;;;9.57;4.55;;;29.40;99.40;;;;;;5053761;28;20257;-85
2021/08/14 12:35:15;;;;;;;9.05;4.07;;;29.20;98.10;;;;;;5052536;28;20211;-84
2021/08/14 12:37:42;;;;;;;7.13;3.60;;;29.10;97.90;;;;;;5054174;28;20232;-85
2021/08/14 12:40:10;;;;;;;5.25;3.88;;;28.90;97.20;;;;;;5061382;28;20693;-84
2021/08/14 12:42:39;;;;;;;7.40;4.05;;;28.60;97.60;;;;;;5059277;28;20234;-86
2021/08/14 12:45:15;;;;;;;7.30;3.83;;;28.90;97.70;;;;;;5058716;28;20226;-85
2021/08/14 12:47:43;;;;;;;9.00;4.10;;;28.60;96.70;;;;;;5054884;28;20936;-85
2021/08/14 12:50:23;;;;;;;8.98;3.85;;;28.60;98.10;;;;;;5058548;28;20227;-85